ADDS METAR Data INFO
IDs: Format: Raw Decoded Include TAF

Data at: 2109 UTC 19 Jul 2018

KTOP 192106Z 00000KT 10SM VCTS CLR 23/21 A2982 RMK AO2 LTG DSNT SE AND S TSE00 PRESFR T02330211
KTOP 192053Z 26005G16KT 10SM TS FEW048 SCT075 23/21 A2986 RMK AO2 PK WND 29050/2023 LTG DSNT SE AND S RAB22E50 TSB22 SLP102 P0012 60012 T02280211 53017
KTOP 192043Z 23010G33KT 4SM -TSRA BR SCT048 BKN075 BKN095 23/21 A2988 RMK AO2 PK WND 29050/2023 LTG DSNT S-W RAB22 TSB22 P0012 T02280206
KTOP 192033Z 25020G47KT 1 3/4SM +TSRA BR SCT046 SCT055 BKN070 23/22 A2988 RMK AO2 PK WND 29050/2023 VIS 3/4V4 LTG DSNT S-NW RAB22 TSB22 THUNDERSTORMS WEST OF AIRPORT MOVING EAST P0003 T02330217
KTOP 192028Z 26027G50KT 3SM +TSRA BR SCT044 SCT060 BKN075 24/22 A2991 RMK AO2 PK WND 29050/2023 LTG DSNT S-NW RAB22 TSB22 THUNDERSTORMS WEST OF AIRPORT MOVING EAST P0000 T02390217
KTOP 192017Z 27015G25KT 10SM VCTS FEW110 33/23 A2987 RMK AO2 LTG DSNT SW-NW PRESRR T03280228
KTOP 191953Z 26008KT 10SM CLR 33/23 A2981 RMK AO2 LTG DSNT S-NW SLP083 T03330228
KTOP 191853Z 34007G18KT 10SM CLR 37/22 A2981 RMK AO2 SLP082 T03720217
KTOP 191753Z 26007KT 10SM CLR 36/22 A2981 RMK AO2 SLP081 T03610222 10367 20239 58008
KTOP 191653Z 30008KT 10SM CLR 36/21 A2982 RMK AO2 SLP086 T03560211
KTOP 191553Z 24007KT 10SM CLR 34/23 A2982 RMK AO2 SLP088 T03390228
KTOP 191453Z 22007KT 10SM CLR 32/24 A2983 RMK AO2 SLP090 T03220239 58008
KTOP 191353Z 22007KT 10SM CLR 29/24 A2984 RMK AO2 SLP094 T02940239
KTOP 191253Z 20004KT 10SM CLR 27/23 A2986 RMK AO2 SLP101 T02670233
KTOP 191153Z 16004KT 10SM FEW044 FEW075 24/23 A2985 RMK AO2 SLP099 T02440233 10256 20228 55005
KTOP 191053Z AUTO 19008KT 10SM CLR 24/23 A2983 RMK AO2 PRESFR SLP090 T02390233
KTOP 190953Z AUTO 14003KT 10SM CLR 24/23 A2987 RMK AO2 SLP104 T02390228
KTOP 190853Z AUTO 13005KT 10SM CLR 24/23 A2987 RMK AO2 SLP104 T02390228 56003
KTOP 190753Z AUTO 13004KT 10SM CLR 24/23 A2987 RMK AO2 SLP106 T02440233
KTOP 190653Z AUTO 14008KT 10SM CLR 26/24 A2986 RMK AO2 SLP103 T02560239
KTOP 190553Z AUTO 00000KT 10SM CLR 25/24 A2988 RMK AO2 SLP108 T02500239 10317 20250 403280217 58007
KTOP 190453Z AUTO 09003KT 10SM BKN120 26/24 A2990 RMK AO2 SLP116 T02560239
KTOP 190353Z AUTO 08006KT 10SM FEW110 26/24 A2991 RMK AO2 SLP118 T02610239
KTOP 190253Z AUTO 08005KT 10SM FEW033 27/24 A2990 RMK AO2 SLP116 T02720239 53004
KTOP 190153Z AUTO 07005KT 10SM BKN047 OVC060 29/23 A2989 RMK AO2 SLP110 T02890233
KTOP 190053Z AUTO 09006KT 10SM CLR 30/23 A2988 RMK AO2 SLP107 T03000233
KTOP 182353Z 08006KT 10SM FEW070 31/23 A2989 RMK AO2 SLP111 T03110228 10328 20283 58008
KTOP 182253Z 07006KT 10SM CLR 32/23 A2990 RMK AO2 SLP115 T03170233
KTOP 182153Z 13007KT 10SM CLR 31/23 A2991 RMK AO2 SLP119 T03110228
KTOP 182053Z 05009KT 10SM CLR 32/23 A2991 RMK AO2 SLP120 T03170233 56024
KTOP 181953Z 09010KT 10SM CLR 32/23 A2993 RMK AO2 SLP126 T03170228
KTOP 181853Z 06009KT 10SM CLR 29/23 A2996 RMK AO2 SLP134 T02940233
KTOP 181753Z 04007KT 020V080 10SM SCT020 29/23 A2999 RMK AO2 SLP144 T02940228 10294 20222 58008
KTOP 181703Z 07007KT 10SM BKN018 OVC044 29/23 A2999 RMK AO2 T02890228
KTOP 181653Z 07008KT 10SM SCT018 BKN043 28/23 A2999 RMK AO2 SLP147 T02830228
KTOP 181553Z 06008KT 10SM BKN017 OVC042 27/22 A3001 RMK AO2 SLP152 T02670222
KTOP 181453Z 09005KT 10SM OVC016 25/22 A3001 RMK AO2 SLP153 T02500217 51002
KTOP 181353Z 06006KT 10SM OVC016 25/22 A3001 RMK AO2 SLP152 T02500217
KTOP 181333Z 09003KT 10SM BKN017 BKN042 24/21 A3000 RMK AO2 T02440211
KTOP 181253Z 07003KT 10SM FEW040 24/21 A3001 RMK AO2 SLP154 T02390211
KTOP 181153Z 02006KT 10SM BKN075 22/21 A3000 RMK AO2 SLP152 70001 T02220211 10233 20217 55002
KTOP 181053Z AUTO 00000KT 10SM FEW055 BKN070 22/21 A3000 RMK AO2 SLP151 T02170211
KTOP 180953Z AUTO 00000KT 10SM BKN050 22/22 A3001 RMK AO2 SLP155 T02170217